North Hudson Marine 1 — WDH6860 — position and weather

sailwx.info

Track history (hours):
 
Tides and Currents Weather Stations Pressure Air Temp Water Temp Dewpoint Dewpoint Depression Visibility Wind Speed Wind Dir Waves Ship Positions

North Hudson Marine 1

Owner: North Hudson Regional Fire & Rescue, West New York, NJ. More information available from US FCC via Universal Licensing System.

Last reported at 2018-Jun-19 02:57 UTC. Time now 2018-Jun-22 05:43 UTC.
Position N 40°46' W 074°01'.

Length 13 m; draft 0.5 m.

Type: SAR. MMSI: 367642340.

Date/timePositionNaut miles runAvg speedWind from/ knotsBaromVisibWave heightAir tempDewpointWater temp
2018-Jun-19 02:57N 40°46' W 074°01'4 8.6
2018-Jun-19 02:30N 40°43' W 074°02'3 6.1
2018-Jun-19 01:59N 40°46' W 074°01'0 0.0
2018-Jun-18 01:25N 40°46' W 074°01'1 1.5
2018-Jun-18 00:59N 40°45' W 074°01'0 0.8
2018-Jun-18 00:31N 40°45' W 074°01'1 0.1
2018-Jun-17 17:28N 40°46' W 074°01'3 7.2
2018-Jun-17 17:00N 40°43' W 074°02'4 0.2
2018-Jun-16 19:58N 40°46' W 074°01'4 7.9
2018-Jun-16 19:30N 40°43' W 074°02'912.2
2018-Jun-16 18:45N 40°51' W 073°57'  
2018-Jun-12 22:24N 40°45' W 074°01'1 0.8
2018-Jun-12 21:27N 40°46' W 074°01'4 9.8
2018-Jun-12 21:00N 40°42' W 073°58'0 0.2
2018-Jun-12 20:30N 40°42' W 073°58'  
2018-Jun-09 18:47N 40°46' W 074°01'414.0
2018-Jun-09 18:31N 40°43' W 074°03'0 1.0
2018-Jun-09 18:00N 40°43' W 074°02'3 6.0
2018-Jun-09 17:30N 40°45' W 074°01'  
Track history (hours):
 
Tides and Currents Weather Stations Pressure Air Temp Water Temp Dewpoint Dewpoint Depression Visibility Wind Speed Wind Dir Waves Ship Positions

North Hudson Marine 1

Owner: North Hudson Regional Fire & Rescue, West New York, NJ. More information available from US FCC via Universal Licensing System.

Last reported at 2018-Jun-19 02:57 UTC. Time now 2018-Jun-22 05:43 UTC.
Position N 40°46' W 074°01'.

Length 13 m; draft 0.5 m.

Type: SAR. MMSI: 367642340.

Date/timePositionNaut miles runAvg speedWind from/ knotsBaromVisibWave heightAir tempDewpointWater temp
2018-Jun-19 02:57N 40°46' W 074°01'4 8.6
2018-Jun-19 02:30N 40°43' W 074°02'3 6.1
2018-Jun-19 01:59N 40°46' W 074°01'0 0.0
2018-Jun-18 01:25N 40°46' W 074°01'1 1.5
2018-Jun-18 00:59N 40°45' W 074°01'0 0.8
2018-Jun-18 00:31N 40°45' W 074°01'1 0.1
2018-Jun-17 17:28N 40°46' W 074°01'3 7.2
2018-Jun-17 17:00N 40°43' W 074°02'4 0.2
2018-Jun-16 19:58N 40°46' W 074°01'4 7.9
2018-Jun-16 19:30N 40°43' W 074°02'912.2
2018-Jun-16 18:45N 40°51' W 073°57'  
2018-Jun-12 22:24N 40°45' W 074°01'1 0.8
2018-Jun-12 21:27N 40°46' W 074°01'4 9.8
2018-Jun-12 21:00N 40°42' W 073°58'0 0.2
2018-Jun-12 20:30N 40°42' W 073°58'  
2018-Jun-09 18:47N 40°46' W 074°01'414.0
2018-Jun-09 18:31N 40°43' W 074°03'0 1.0
2018-Jun-09 18:00N 40°43' W 074°02'3 6.0
2018-Jun-09 17:30N 40°45' W 074°01'  

Dump ship's entire track history